Main page
METAR-TAF:

METAR-TAF

Airports :

Mashhad, Iran

Mashhad International Airport

latitude: 36-16N, longitude: 059-38E, elevation: 989 m

Current weather observation

The report was made 17 minutes ago, at 09:30 UTC
Wind 4 kt from the Northwest
Temperature 20°C
Humidity 24%
Pressure 1014 hPa
Visibility 10 km or more
no clouds below 1500 m and no cumulonimbus

METAR: OIMM 220930Z 31004KT CAVOK 20/M01 Q1014 A2995

Time: 13:17 (09:47 UTC)

Forecast

The report was made 4 hours and 17 minutes ago, at 05:30 UTC
Forecast valid from 22 at 06 UTC to 23 at 12 UTC
Wind 6 kt from the Southeast
Visibility 10 km or more
no clouds below 1500 m and no cumulonimbus

TAF: OIMM 220530Z 2206/2312 13003MPS CAVOK

Weather observations and forecasts of more than 4000 airports (METAR and TAF reports).

The available stations are represented by yellow and red dots on the map.

Hover mouse over dot to see the name of the station.

Then click to see weather observations and forecasts.

To change the map : click on the green buttons with a black cross to zoom in, on the green button with a dash to zoom out, or on the green arrows for adjacent maps.


METAR-TAF: